SPHO/AYP METAR and TAF weather

Enter ICAO airport designator
Station Type Date Time Source
SPHO METAR 2019/02/20 17:00 UTC NOAA

SPHO 201700Z 10005KT 050V170 9999 SCT030 BKN210 19/09 Q1028 RMK PP000


Station Type Date Time Source
SPHO Decoded METAR 2019/02/20 17:00 UTC NOAA

Ayacucho, Peru (SPHO) 13-08S 074-13W 2749M
Feb 20, 2019 - 12:00 PM EST / 2019.02.20 1700 UTC
Wind: from the E (100 degrees) at 6 MPH (5 KT) (direction variable):0
Visibility: greater than 7 mile(s):0
Sky conditions: mostly cloudy
Temperature: 66 F (19 C)
Dew Point: 48 F (9 C)
Relative Humidity: 52%
Pressure (altimeter): 30.36 in. Hg (1028 hPa)
ob: SPHO 201700Z 10005KT 050V170 9999 SCT030 BKN210 19/09 Q1028 RMK PP000
cycle: 17

Station Type Date Time Source
SPHO TAF 2019/02/20 18:33 UTC NOAA

SPHO 201700Z 2018/2118 VRB02KT 9999 FEW015 FEW050TCU BKN080 TX22/2020Z TN12/2111Z
TEMPO 2019/2022 DZ
BECMG 2023/2024 FEW020 BKN080
TEMPO 2109/2111 RA


Example: see airport list